Time;durP1;ratioP1;P1;durP2;ratioP2;P2;SDS_P1;SDS_P2;PMS_P1;PMS_P2;Temp;Humidity;BMP_temperature;BMP_pressure;BME280_temperature;BME280_humidity;BME280_pressure;Samples;Min_cycle;Max_cycle;Signal;HPM_P1;HPM_P2
2021/04/14 00:01:25;;;;;;;3.63;3.30;;;;;;;2.18;71.73;96282.00;6350604;22;20369;-86
2021/04/14 00:03:52;;;;;;;5.00;3.35;;;;;;;2.22;73.28;96276.59;6349582;22;20006;-87
2021/04/14 00:06:17;;;;;;;3.65;3.25;;;;;;;1.80;72.88;96209.03;6351918;22;20026;-87
2021/04/14 00:08:46;;;;;;;3.90;3.50;;;;;;;2.21;74.32;96277.75;6350552;22;20018;-87
2021/04/14 00:11:19;;;;;;;4.03;3.63;;;;;;;2.25;70.97;96278.47;6350622;22;20081;-86
2021/04/14 00:13:46;;;;;;;3.75;3.45;;;;;;;2.29;72.46;96279.16;6377334;22;20726;-86
2021/04/14 00:16:22;;;;;;;3.35;3.05;;;;;;;2.21;71.90;96272.41;6351194;22;20033;-87
2021/04/14 00:18:48;;;;;;;4.43;3.22;;;;;;;2.16;72.40;96236.09;6350426;22;20266;-87
2021/04/14 00:21:20;;;;;;;3.05;2.60;;;;;;;2.35;72.69;96266.84;6378072;22;20244;-86
2021/04/14 00:23:45;;;;;;;3.00;2.70;;;;;;;1.93;73.02;96191.25;6349466;22;20006;-86
2021/04/14 00:26:12;;;;;;;3.63;3.22;;;;;;;2.29;71.94;96255.81;6378007;22;20077;-86
2021/04/14 00:28:38;;;;;;;3.33;3.03;;;;;;;2.39;71.74;96258.72;6350581;22;20023;-87
2021/04/14 00:31:04;;;;;;;29.15;4.30;;;;;;;2.45;72.72;96276.66;6349456;22;20012;-87
2021/04/14 00:33:30;;;;;;;3.13;2.83;;;;;;;2.01;71.54;96221.38;6352280;22;20437;-87
2021/04/14 00:35:56;;;;;;;3.38;2.90;;;;;;;2.41;72.02;96230.38;6349242;22;20082;-87
2021/04/14 00:38:23;;;;;;;4.07;2.60;;;;;;;2.29;70.54;96268.44;6349817;22;20006;-87
2021/04/14 00:41:12;;;;;;;3.03;2.72;;;;;;;2.28;71.16;96258.91;6349276;22;20077;-87
2021/04/14 00:43:38;;;;;;;2.92;2.63;;;;;;;2.47;71.29;96281.59;6376515;22;20002;-87
2021/04/14 00:46:05;;;;;;;3.33;3.03;;;;;;;2.48;74.03;96283.88;6349153;22;20006;-87
2021/04/14 00:48:32;;;;;;;3.05;2.70;;;;;;;2.34;72.23;96284.06;6348928;22;20009;-87
2021/04/14 00:50:59;;;;;;;2.92;2.25;;;;;;;2.40;71.41;96287.06;6349569;22;19998;-87
2021/04/14 00:53:25;;;;;;;2.45;2.15;;;;;;;2.15;71.46;96252.59;6348729;22;20007;-87
2021/04/14 00:55:51;;;;;;;2.97;2.42;;;;;;;2.00;73.23;96225.22;6348789;22;20003;-87
2021/04/14 00:58:17;;;;;;;2.97;2.75;;;;;;;2.39;71.87;96293.59;6376769;22;20002;-87
2021/04/14 01:00:46;;;;;;;2.65;2.45;;;;;;;1.82;70.69;96209.41;6349888;22;20081;-87
2021/04/14 01:03:25;;;;;;;3.10;2.80;;;;;;;2.42;71.42;96287.44;6377977;22;20003;-87
2021/04/14 01:05:53;;;;;;;2.90;2.60;;;;;;;2.12;72.66;96213.94;6348710;22;20062;-87
2021/04/14 01:08:19;;;;;;;2.60;2.40;;;;;;;2.44;69.38;96283.16;6348775;22;19999;-87
2021/04/14 01:10:45;;;;;;;3.13;2.58;;;;;;;2.34;69.42;96252.69;6349113;22;20009;-86
2021/04/14 01:13:12;;;;;;;2.58;2.38;;;;;;;2.13;70.19;96263.72;6349130;22;20025;-87
2021/04/14 01:15:44;;;;;;;3.28;2.55;;;;;;;2.07;71.12;96279.47;6376231;22;20002;-87
2021/04/14 01:18:14;;;;;;;2.53;2.30;;;;;;;2.17;70.51;96271.69;6348737;22;20431;-87
2021/04/14 01:20:39;;;;;;;2.75;2.50;;;;;;;2.01;69.63;96250.84;6348425;22;20282;-87
2021/04/14 01:23:07;;;;;;;2.80;2.47;;;;;;;2.13;71.98;96247.63;6348644;22;20010;-88
2021/04/14 01:25:37;;;;;;;3.00;2.40;;;;;;;2.29;69.69;96265.75;6375874;22;20024;-87
2021/04/14 01:28:15;;;;;;;2.95;2.65;;;;;;;2.11;71.11;96263.34;6348136;22;20413;-88
2021/04/14 01:30:42;;;;;;;3.22;2.50;;;;;;;1.82;70.46;96191.41;6349136;22;20051;-87
2021/04/14 01:33:10;;;;;;;2.35;2.15;;;;;;;2.35;69.44;96253.44;6348414;22;20006;-87
2021/04/14 01:35:36;;;;;;;2.38;2.17;;;;;;;2.13;70.71;96242.28;6349591;22;20081;-87
2021/04/14 01:38:02;;;;;;;3.50;2.55;;;;;;;2.07;68.95;96207.13;6348568;22;20009;-87
2021/04/14 01:40:29;;;;;;;4.80;2.58;;;;;;;2.28;69.85;96232.84;6348831;22;20005;-87
2021/04/14 01:42:56;;;;;;;2.63;2.42;;;;;;;2.48;70.45;96248.25;6348787;22;20274;-87
2021/04/14 01:45:35;;;;;;;2.60;2.40;;;;;;;2.60;70.85;96256.47;6349145;22;20244;-87
2021/04/14 01:48:03;;;;;;;2.78;2.50;;;;;;;2.61;68.62;96251.91;6376364;22;20002;-87
2021/04/14 01:50:29;;;;;;;2.58;2.38;;;;;;;2.13;69.58;96194.03;6375638;22;20380;-87
2021/04/14 01:52:56;;;;;;;2.80;2.60;;;;;;;2.07;68.79;96188.34;6375878;22;20021;-86
2021/04/14 01:55:23;;;;;;;2.35;2.15;;;;;;;2.15;67.75;96209.72;6348116;22;20002;-87
2021/04/14 01:57:49;;;;;;;2.78;2.50;;;;;;;2.21;69.51;96202.72;6348127;22;19998;-86
2021/04/14 02:00:25;;;;;;;2.45;2.25;;;;;;;2.60;70.75;96242.31;6348486;22;20025;-86
2021/04/14 02:02:57;;;;;;;3.03;2.50;;;;;;;2.06;69.43;96170.00;6376149;22;20318;-87
2021/04/14 02:05:28;;;;;;;2.40;2.20;;;;;;;2.34;68.42;96223.19;6349462;22;19998;-87
2021/04/14 02:07:53;;;;;;;;;;;;;;;2.41;68.33;96240.34;6348415;22;20002;-87
2021/04/14 02:10:21;;;;;;;2.70;2.50;;;;;;;2.21;70.98;96205.41;6348863;22;19937;-87
2021/04/14 02:12:47;;;;;;;2.83;2.55;;;;;;;2.02;68.54;96183.44;6347777;22;20018;-87
2021/04/14 02:15:22;;;;;;;3.45;2.70;;;;;;;2.38;70.58;96244.56;6348563;22;20002;-87
2021/04/14 02:17:48;;;;;;;3.45;3.03;;;;;;;2.16;71.90;96200.50;6377464;22;19998;-87
2021/04/14 02:20:15;;;;;;;2.65;2.45;;;;;;;2.49;71.52;96252.47;6350456;22;20002;-87
2021/04/14 02:22:41;;;;;;;2.92;2.72;;;;;;;2.51;71.26;96242.84;6348969;22;20006;-87
2021/04/14 02:25:12;;;;;;;3.55;2.83;;;;;;;2.48;68.37;96237.53;6349521;22;20082;-86
2021/04/14 02:27:38;;;;;;;2.70;2.50;;;;;;;1.93;68.25;96174.44;6368172;22;20002;-86
2021/04/14 02:30:06;;;;;;;3.08;2.78;;;;;;;2.14;68.16;96202.84;6349415;22;20056;-86
2021/04/14 02:32:33;;;;;;;2.83;2.58;;;;;;;2.31;69.69;96245.44;6349966;22;20081;-86
2021/04/14 02:34:58;;;;;;;2.80;2.60;;;;;;;2.19;69.51;96194.34;6349684;22;20370;-87
2021/04/14 02:37:23;;;;;;;2.97;2.70;;;;;;;1.90;68.83;96172.56;6350060;22;20085;-86
2021/04/14 02:39:49;;;;;;;4.30;3.20;;;;;;;1.94;69.47;96175.94;6350853;22;20123;-86
2021/04/14 02:42:15;;;;;;;2.63;2.42;;;;;;;2.18;69.76;96198.91;6350181;22;20006;-86
2021/04/14 02:44:41;;;;;;;3.40;3.10;;;;;;;2.02;69.96;96174.66;6350044;22;20073;-86
2021/04/14 02:47:07;;;;;;;3.20;2.90;;;;;;;2.06;68.47;96204.84;6349721;22;20087;-86
2021/04/14 02:49:32;;;;;;;3.38;3.08;;;;;;;2.04;71.42;96202.56;6349864;22;20002;-86
2021/04/14 02:51:59;;;;;;;3.17;2.88;;;;;;;2.05;69.77;96190.69;6348941;22;20443;-86
2021/04/14 02:54:25;;;;;;;4.32;3.22;;;;;;;1.83;72.15;96152.00;6349732;22;20029;-87
2021/04/14 02:56:51;;;;;;;3.20;2.90;;;;;;;1.87;71.40;96162.66;6350542;22;20005;-87
2021/04/14 02:59:17;;;;;;;3.33;3.03;;;;;;;2.26;69.80;96237.88;6350257;22;20006;-87
2021/04/14 03:01:42;;;;;;;3.60;3.30;;;;;;;1.93;72.48;96175.19;6349524;22;20095;-87
2021/04/14 03:04:08;;;;;;;3.65;3.13;;;;;;;2.02;70.33;96175.41;6350689;22;20029;-87
2021/04/14 03:06:34;;;;;;;3.42;3.00;;;;;;;2.31;69.81;96225.94;6349802;22;20009;-87
2021/04/14 03:09:00;;;;;;;3.17;2.88;;;;;;;2.01;72.29;96179.25;6349765;22;20064;-88
2021/04/14 03:11:26;;;;;;;3.30;3.00;;;;;;;2.00;70.63;96179.69;6349642;22;20003;-88
2021/04/14 03:13:52;;;;;;;3.83;2.97;;;;;;;1.94;71.75;96187.41;6349857;22;20002;-87
2021/04/14 03:16:17;;;;;;;2.78;2.40;;;;;;;1.91;69.84;96190.13;6378149;22;20054;-87
2021/04/14 03:18:42;;;;;;;2.70;2.50;;;;;;;1.66;70.92;96140.38;6349970;22;20366;-87
2021/04/14 03:21:08;;;;;;;2.95;2.67;;;;;;;1.84;70.53;96151.56;6349511;22;20110;-88
2021/04/14 03:23:34;;;;;;;2.40;2.20;;;;;;;1.93;67.11;96175.19;6349696;22;20013;-87
2021/04/14 03:25:59;;;;;;;2.45;2.25;;;;;;;2.13;67.39;96187.91;6349704;22;20002;-87
2021/04/14 03:28:25;;;;;;;2.45;2.20;;;;;;;2.14;65.02;96182.16;6348518;22;20022;-87
2021/04/14 03:30:51;;;;;;;2.30;2.10;;;;;;;1.92;66.08;96152.25;6349980;22;20006;-87
2021/04/14 03:33:17;;;;;;;2.45;2.10;;;;;;;2.43;67.30;96222.66;6349910;22;20010;-87
2021/04/14 03:35:42;;;;;;;2.50;2.10;;;;;;;2.40;68.50;96202.06;6349602;22;20059;-86
2021/04/14 03:38:08;;;;;;;2.28;2.08;;;;;;;2.08;69.24;96173.81;6377121;22;20006;-86
2021/04/14 03:40:35;;;;;;;10.27;2.63;;;;;;;2.43;69.13;96220.00;6349346;22;20036;-86
2021/04/14 03:43:00;;;;;;;25.23;3.10;;;;;;;1.98;66.87;96150.63;6377254;22;19998;-86
2021/04/14 03:45:33;;;;;;;2.33;2.13;;;;;;;2.24;68.81;96220.69;6349123;22;20286;-86
2021/04/14 03:47:59;;;;;;;2.10;1.90;;;;;;;2.02;65.12;96180.00;6349181;22;20010;-86
2021/04/14 03:50:26;;;;;;;2.55;2.20;;;;;;;1.98;68.14;96172.06;6349075;22;20088;-86
2021/04/14 03:52:52;;;;;;;2.20;2.00;;;;;;;2.15;65.72;96205.09;6349547;22;20095;-86
2021/04/14 03:55:21;;;;;;;1.90;1.77;;;;;;;2.02;65.15;96178.09;6349500;22;20034;-85
2021/04/14 03:57:46;;;;;;;2.53;2.13;;;;;;;1.98;66.13;96184.69;6348692;22;20002;-87
2021/04/14 04:00:13;;;;;;;2.42;2.17;;;;;;;2.10;68.67;96186.81;6348868;22;20284;-87
2021/04/14 04:02:39;;;;;;;3.25;2.40;;;;;;;1.91;70.50;96161.41;6348851;22;20063;-87
2021/04/14 04:05:06;;;;;;;2.70;2.20;;;;;;;2.19;66.75;96226.50;6350405;22;20351;-87
2021/04/14 04:07:32;;;;;;;3.17;2.53;;;;;;;1.93;67.96;96183.22;6376861;22;20009;-87
2021/04/14 04:09:57;;;;;;;3.60;2.20;;;;;;;1.95;68.00;96180.13;6349128;22;20266;-87
2021/04/14 04:12:22;;;;;;;3.35;2.60;;;;;;;1.91;67.42;96180.19;6348724;22;20395;-87
2021/04/14 04:14:50;;;;;;;2.70;2.50;;;;;;;1.97;68.09;96209.94;6348358;22;20006;-87
2021/04/14 04:17:17;;;;;;;3.30;2.53;;;;;;;2.27;69.86;96242.06;6348801;22;20051;-87
2021/04/14 04:19:43;;;;;;;3.67;2.60;;;;;;;1.68;67.51;96193.50;6348577;22;20385;-87
2021/04/14 04:22:11;;;;;;;2.88;2.22;;;;;;;1.97;67.48;96237.53;6348540;22;20002;-88
2021/04/14 04:24:37;;;;;;;2.50;2.30;;;;;;;1.61;68.16;96194.38;6349192;22;20081;-87
2021/04/14 04:27:03;;;;;;;2.47;2.28;;;;;;;1.30;67.53;96140.81;6348469;22;20094;-87
2021/04/14 04:29:29;;;;;;;2.53;2.22;;;;;;;1.68;66.61;96199.63;6348454;22;20006;-88
2021/04/14 04:31:54;;;;;;;2.47;2.25;;;;;;;1.51;68.48;96174.59;6348564;22;20006;-87
2021/04/14 04:34:20;;;;;;;2.97;2.53;;;;;;;1.63;67.57;96186.69;6348877;22;20056;-86
2021/04/14 04:36:45;;;;;;;2.30;2.10;;;;;;;1.74;69.71;96211.41;6375995;22;20005;-86
2021/04/14 04:39:11;;;;;;;2.75;2.45;;;;;;;2.22;68.30;96260.50;6348351;22;20009;-86
2021/04/14 04:41:37;;;;;;;6.40;2.53;;;;;;;1.77;67.57;96186.50;6348122;22;20010;-86
2021/04/14 04:44:03;;;;;;;3.28;2.33;;;;;;;1.93;69.81;96195.88;6350822;22;20459;-87
2021/04/14 04:46:37;;;;;;;4.22;2.35;;;;;;;2.24;68.22;96258.97;6349443;22;20013;-86
2021/04/14 04:49:03;;;;;;;3.08;2.40;;;;;;;2.10;68.11;96225.06;6356676;22;20006;-87
2021/04/14 04:51:29;;;;;;;4.90;3.08;;;;;;;2.14;70.68;96229.63;6348097;22;20068;-87
2021/04/14 04:53:55;;;;;;;3.58;2.95;;;;;;;1.82;68.64;96191.41;6348132;22;20006;-86
2021/04/14 04:56:20;;;;;;;5.57;4.25;;;;;;;1.98;68.11;96224.88;6347922;22;20347;-86
2021/04/14 04:58:46;;;;;;;3.35;2.63;;;;;;;1.91;69.85;96204.28;6348103;22;20064;-86
2021/04/14 05:01:12;;;;;;;3.70;3.08;;;;;;;2.15;69.36;96242.63;6347697;22;20026;-86
2021/04/14 05:03:37;;;;;;;3.50;3.13;;;;;;;2.18;71.49;96255.19;6347980;22;20005;-86
2021/04/14 05:06:03;;;;;;;2.83;2.53;;;;;;;2.53;70.07;96294.16;6348021;22;20002;-86
2021/04/14 05:08:29;;;;;;;3.15;2.58;;;;;;;2.16;68.46;96238.78;6347764;22;20085;-86
2021/04/14 05:10:55;;;;;;;3.25;2.92;;;;;;;2.14;69.36;96224.28;6377108;22;20021;-88
2021/04/14 05:13:21;;;;;;;3.70;2.75;;;;;;;2.36;69.37;96246.91;6375747;22;20013;-86
2021/04/14 05:15:47;;;;;;;3.92;2.85;;;;;;;2.18;69.80;96236.44;6347936;22;20147;-86
2021/04/14 05:18:14;;;;;;;6.63;5.45;;;;;;;2.17;66.93;96228.81;6345786;22;20048;-86
2021/04/14 05:20:40;;;;;;;3.58;3.15;;;;;;;2.25;66.46;96236.34;6347212;22;20351;-85
2021/04/14 05:23:08;;;;;;;3.15;2.50;;;;;;;1.93;66.61;96212.69;6347666;22;20271;-85
2021/04/14 05:25:36;;;;;;;3.85;3.28;;;;;;;2.17;65.13;96275.13;6375188;22;20082;-89
2021/04/14 05:28:05;;;;;;;3.20;2.55;;;;;;;2.38;65.78;96289.41;6344475;22;20044;-88
2021/04/14 05:30:31;;;;;;;2.85;2.30;;;;;;;2.66;65.99;96290.88;6347489;22;20002;-86
2021/04/14 05:32:57;;;;;;;3.33;1.83;;;;;;;2.27;65.52;96231.34;6347267;22;20610;-85
2021/04/14 05:35:23;;;;;;;2.50;2.30;;;;;;;2.19;66.90;96189.75;6375074;22;19998;-86
2021/04/14 05:37:49;;;;;;;2.88;2.30;;;;;;;2.44;66.43;96229.53;6347701;22;19994;-85
2021/04/14 05:40:15;;;;;;;2.60;1.98;;;;;;;2.79;61.82;96279.19;6347113;22;20029;-85
2021/04/14 05:42:44;;;;;;;3.47;2.30;;;;;;;3.02;66.91;96289.16;6347267;22;20128;-85
2021/04/14 05:45:12;;;;;;;3.28;2.20;;;;;;;3.00;65.80;96301.47;6347335;22;20262;-85
2021/04/14 05:47:38;;;;;;;3.10;2.25;;;;;;;2.57;63.95;96238.53;6347324;22;20002;-86
2021/04/14 05:50:06;;;;;;;4.47;2.20;;;;;;;3.06;65.74;96281.81;6347246;22;20055;-85
2021/04/14 05:52:32;;;;;;;3.88;2.70;;;;;;;2.53;64.62;96204.91;6347231;22;20038;-85
2021/04/14 05:54:57;;;;;;;2.15;1.75;;;;;;;2.95;63.66;96273.19;6375393;22;20236;-85
2021/04/14 05:57:23;;;;;;;2.17;1.95;;;;;;;2.96;65.99;96261.28;6347498;22;19998;-85
2021/04/14 05:59:49;;;;;;;2.67;2.47;;;;;;;3.05;64.48;96260.75;6347383;22;20385;-85
2021/04/14 06:02:14;;;;;;;3.13;2.53;;;;;;;3.00;67.00;96256.63;6347660;22;20009;-86
2021/04/14 06:04:40;;;;;;;2.92;2.30;;;;;;;3.37;65.77;96290.47;6346485;22;20104;-85
2021/04/14 06:07:05;;;;;;;2.58;1.83;;;;;;;2.97;64.33;96232.50;6374133;22;20002;-85
2021/04/14 06:09:31;;;;;;;2.20;1.92;;;;;;;3.11;64.95;96246.44;6374927;22;19998;-85
2021/04/14 06:11:57;;;;;;;2.10;1.85;;;;;;;3.40;59.79;96288.88;6346504;22;20006;-86
2021/04/14 06:14:22;;;;;;;3.10;2.33;;;;;;;2.92;61.77;96212.28;6347365;22;20002;-86
2021/04/14 06:16:49;;;;;;;2.92;1.92;;;;;;;3.55;64.20;96289.38;6347293;22;20002;-85
2021/04/14 06:19:14;;;;;;;3.10;2.28;;;;;;;3.32;64.44;96247.22;6346931;22;20006;-85
2021/04/14 06:21:40;;;;;;;2.42;1.88;;;;;;;3.21;62.86;96209.09;6341091;22;20033;-85
2021/04/14 06:24:06;;;;;;;2.80;1.88;;;;;;;3.24;61.01;96233.16;6343027;22;20309;-84
2021/04/14 06:28:57;;;;;;;3.72;2.05;;;;;;;3.27;64.04;96212.81;6374450;22;20002;-84
2021/04/14 06:31:25;;;;;;;5.20;1.85;;;;;;;3.50;60.30;96234.22;6346598;22;20362;-84
2021/04/14 06:33:51;;;;;;;3.75;1.85;;;;;;;3.56;61.54;96226.44;6346585;22;20002;-85
2021/04/14 06:36:17;;;;;;;2.17;1.90;;;;;;;3.62;59.69;96224.75;6344683;22;20090;-84
2021/04/14 06:38:46;;;;;;;1.75;1.58;;;;;;;3.15;58.75;96193.47;6347027;22;20026;-84
2021/04/14 06:41:40;;;;;;;2.17;1.80;;;;;;;3.89;61.03;96278.38;6346398;22;20270;-84
2021/04/14 06:44:12;;;;;;;3.30;1.73;;;;;;;4.05;58.92;96280.31;6372479;22;20038;-84
2021/04/14 06:46:41;;;;;;;12.93;8.07;;;;;;;3.81;59.20;96280.41;6345024;22;20033;-85
2021/04/14 06:49:15;;;;;;;4.82;2.80;;;;;;;3.91;61.16;96246.44;6346905;22;20063;-85
2021/04/14 06:52:06;;;;;;;5.15;2.00;;;;;;;4.27;61.27;96292.16;6373123;22;20018;-84
2021/04/14 06:54:44;;;;;;;3.50;2.10;;;;;;;4.29;59.84;96300.56;6353383;22;20033;-85
2021/04/14 06:57:21;;;;;;;2.70;1.90;;;;;;;3.86;58.79;96231.56;6345126;22;20082;-85
2021/04/14 07:00:02;;;;;;;2.67;1.80;;;;;;;3.77;58.62;96222.56;6346498;22;20009;-85
2021/04/14 07:02:46;;;;;;;2.55;2.10;;;;;;;4.16;57.07;96297.00;6346535;22;20033;-85
2021/04/14 07:05:43;;;;;;;3.90;1.85;;;;;;;4.19;58.23;96280.03;6348356;22;20028;-84
2021/04/14 07:08:29;;;;;;;3.47;1.70;;;;;;;4.31;58.36;96303.56;6370187;22;20044;-85
2021/04/14 07:10:58;;;;;;;3.22;1.98;;;;;;;4.18;58.19;96255.06;6348286;22;20007;-83
2021/04/14 07:13:25;;;;;;;3.53;2.30;;;;;;;4.52;57.71;96309.66;6347778;22;20351;-84
2021/04/14 07:16:01;;;;;;;4.63;2.50;;;;;;;4.57;57.85;96303.78;6348657;22;20002;-84
2021/04/14 07:18:28;;;;;;;3.88;2.30;;;;;;;4.45;57.35;96314.03;6347008;22;20013;-85
2021/04/14 07:21:22;;;;;;;6.85;3.08;;;;;;;3.70;59.70;96212.72;6348511;22;20013;-86
2021/04/14 07:23:56;;;;;;;3.53;2.25;;;;;;;4.42;58.20;96301.44;6359387;22;20358;-85
2021/04/14 07:26:44;;;;;;;6.22;2.42;;;;;;;4.73;58.71;96315.31;6348384;22;20037;-85
2021/04/14 07:29:19;;;;;;;6.22;2.10;;;;;;;4.72;58.00;96315.75;6347335;22;20262;-85
2021/04/14 07:31:52;;;;;;;3.40;1.80;;;;;;;4.49;58.13;96316.66;6348580;22;20009;-86
2021/04/14 07:34:50;;;;;;;3.20;1.80;;;;;;;4.47;56.62;96270.56;6348645;22;20009;-86
2021/04/14 07:37:40;;;;;;;4.93;3.00;;;;;;;4.61;56.73;96313.28;6348083;22;20033;-86
2021/04/14 07:40:26;;;;;;;6.03;2.40;;;;;;;5.00;55.60;96314.31;6375959;22;20029;-86
2021/04/14 07:43:12;;;;;;;5.72;1.98;;;;;;;4.90;54.47;96320.69;6347860;22;20251;-85
2021/04/14 07:45:39;;;;;;;2.78;1.98;;;;;;;4.60;54.99;96308.34;6374633;22;20002;-85
2021/04/14 07:48:20;;;;;;;6.90;2.00;;;;;;;4.70;55.06;96328.88;6345479;22;20040;-85
2021/04/14 07:50:49;;;;;;;;;;;;;;;4.71;55.50;96330.38;6347879;22;20317;-85
2021/04/14 07:53:17;;;;;;;4.72;2.25;;;;;;;4.55;56.01;96311.53;6348313;22;20247;-86
2021/04/14 07:55:42;;;;;;;3.67;1.75;;;;;;;4.50;54.88;96264.34;6348310;22;20094;-86
2021/04/14 07:58:24;;;;;;;3.10;1.40;;;;;;;4.67;54.48;96325.06;6375808;22;20021;-86
2021/04/14 08:00:49;;;;;;;5.55;1.90;;;;;;;4.48;56.51;96288.25;6345395;22;19998;-86
2021/04/14 08:03:23;;;;;;;5.75;2.25;;;;;;;4.67;57.68;96325.06;6348034;22;20317;-87
2021/04/14 08:05:50;;;;;;;15.02;2.55;;;;;;;4.36;58.64;96278.88;6375963;22;20367;-85
2021/04/14 08:08:27;;;;;;;8.75;2.13;;;;;;;4.70;55.82;96326.19;6376029;22;20002;-86
2021/04/14 08:11:01;;;;;;;11.18;2.10;;;;;;;4.87;56.41;96325.00;6376202;22;20052;-85
2021/04/14 08:13:38;;;;;;;7.32;2.30;;;;;;;4.53;55.82;96284.28;6347979;22;20014;-85
2021/04/14 08:16:35;;;;;;;5.07;1.95;;;;;;;4.63;56.77;96329.75;6346347;22;19995;-85
2021/04/14 08:19:08;;;;;;;3.75;1.67;;;;;;;4.58;57.14;96326.81;6348261;22;20010;-85
2021/04/14 08:21:41;;;;;;;2.72;1.75;;;;;;;4.80;56.73;96344.00;6375920;22;20370;-85
2021/04/14 08:24:23;;;;;;;7.47;1.83;;;;;;;4.71;55.17;96300.78;6375748;22;20059;-86
2021/04/14 08:26:58;;;;;;;6.55;1.75;;;;;;;4.78;54.80;96297.16;6346524;22;20009;-85
2021/04/14 08:29:24;;;;;;;4.53;2.10;;;;;;;5.11;55.97;96349.81;6375622;22;20055;-85
2021/04/14 08:31:57;;;;;;;4.88;2.53;;;;;;;4.43;55.15;96297.56;6347980;22;19998;-85
2021/04/14 08:34:32;;;;;;;5.45;2.17;;;;;;;4.47;56.79;96300.16;6348258;22;20002;-85
2021/04/14 08:37:04;;;;;;;4.72;2.53;;;;;;;4.47;55.77;96332.44;6348004;22;20025;-85
2021/04/14 08:39:36;;;;;;;5.28;2.50;;;;;;;4.63;55.62;96345.16;6348025;22;20020;-85
2021/04/14 08:42:20;;;;;;;4.55;2.00;;;;;;;4.52;57.15;96358.84;6375090;22;20010;-85
2021/04/14 08:44:48;;;;;;;3.65;1.70;;;;;;;4.06;56.98;96306.03;6375728;22;19998;-85
2021/04/14 08:47:22;;;;;;;3.72;1.90;;;;;;;4.30;58.11;96358.53;6347747;22;20026;-85
2021/04/14 08:49:54;;;;;;;5.00;2.10;;;;;;;4.52;56.15;96368.84;6347762;22;20010;-86
2021/04/14 08:52:21;;;;;;;7.22;2.25;;;;;;;4.33;55.99;96330.06;6347954;22;20018;-85
2021/04/14 08:54:48;;;;;;;3.00;1.90;;;;;;;4.47;53.83;96343.97;6346144;22;20010;-85
2021/04/14 08:57:18;;;;;;;7.15;1.60;;;;;;;4.40;55.29;96298.38;6374764;22;20032;-85
2021/04/14 08:59:43;;;;;;;5.35;2.50;;;;;;;4.91;55.38;96366.06;6347728;22;20002;-86
2021/04/14 09:02:13;;;;;;;5.30;2.38;;;;;;;4.89;56.07;96363.00;6347943;22;20002;-85
2021/04/14 09:04:44;;;;;;;3.45;1.50;;;;;;;4.42;56.06;96322.94;6347986;22;20252;-85
2021/04/14 09:07:15;;;;;;;4.40;1.95;;;;;;;4.73;55.42;96328.75;6348553;22;20006;-85
2021/04/14 09:09:52;;;;;;;7.85;2.00;;;;;;;4.77;54.43;96362.91;6347550;22;20002;-84
2021/04/14 09:12:29;;;;;;;6.13;1.73;;;;;;;4.39;55.40;96325.69;6347702;22;20037;-85
2021/04/14 09:15:09;;;;;;;6.32;2.47;;;;;;;4.52;56.50;96323.09;6374888;22;20002;-85
2021/04/14 09:17:35;;;;;;;10.10;4.40;;;;;;;4.75;55.41;96359.91;6347877;22;20002;-85
2021/04/14 09:20:25;;;;;;;8.23;3.70;;;;;;;4.86;56.42;96368.50;6347572;22;20091;-85
2021/04/14 09:23:05;;;;;;;5.22;2.08;;;;;;;4.47;56.16;96359.31;6375095;22;20057;-85
2021/04/14 09:25:46;;;;;;;3.17;1.70;;;;;;;4.48;54.77;96317.81;6346201;22;20006;-85
2021/04/14 09:28:24;;;;;;;2.33;1.77;;;;;;;4.91;55.43;96366.06;6347157;22;20009;-85
2021/04/14 09:30:50;;;;;;;6.10;1.85;;;;;;;4.85;54.86;96364.28;6346250;22;20003;-85
2021/04/14 09:33:20;;;;;;;3.60;1.58;;;;;;;4.80;55.49;96362.09;6347612;22;20014;-85
2021/04/14 09:35:51;;;;;;;2.65;1.60;;;;;;;4.98;55.47;96368.56;6346018;22;20029;-85
2021/04/14 09:38:21;;;;;;;2.08;1.48;;;;;;;4.69;57.17;96330.81;6347439;22;20092;-85
2021/04/14 09:40:47;;;;;;;2.05;1.45;;;;;;;4.41;59.59;96328.72;6347718;22;20013;-85
2021/04/14 09:43:28;;;;;;;3.55;1.83;;;;;;;4.50;60.13;96353.13;6347389;22;20005;-85
2021/04/14 09:46:08;;;;;;;3.30;1.40;;;;;;;4.66;58.38;96341.63;6347401;22;20006;-86
2021/04/14 09:48:42;;;;;;;4.97;1.70;;;;;;;4.91;58.43;96357.22;6347761;22;20263;-85
2021/04/14 09:51:33;;;;;;;4.32;1.75;;;;;;;4.87;57.83;96357.28;6345907;22;20069;-85
2021/04/14 09:54:07;;;;;;;4.18;1.70;;;;;;;4.81;58.26;96363.59;6374997;22;20046;-85
2021/04/14 09:56:34;;;;;;;2.83;2.25;;;;;;;4.66;58.59;96337.00;6345644;22;19999;-85
2021/04/14 09:59:15;;;;;;;4.97;2.30;;;;;;;4.49;58.17;96365.06;6347193;22;20143;-86
2021/04/14 10:02:03;;;;;;;;;;;;;;;4.62;58.40;96367.84;6348086;22;20002;-85
2021/04/14 10:04:29;;;;;;;6.18;1.50;;;;;;;4.69;56.63;96324.66;6302751;22;19902;-85
2021/04/14 10:07:03;;;;;;;2.75;1.77;;;;;;;4.27;56.37;96326.34;6346418;22;20002;-85
2021/04/14 10:09:36;;;;;;;4.22;2.10;;;;;;;4.15;56.08;96271.28;6346821;22;20298;-85
2021/04/14 10:12:15;;;;;;;2.50;1.70;;;;;;;4.31;55.80;96353.91;6347057;22;20010;-86
2021/04/14 10:14:47;;;;;;;8.65;1.85;;;;;;;4.10;55.98;96352.41;6374379;22;20003;-85
2021/04/14 10:17:26;;;;;;;7.38;2.00;;;;;;;4.64;57.55;96365.53;6374319;22;19999;-85
2021/04/14 10:19:54;;;;;;;3.47;1.95;;;;;;;4.85;57.19;96353.53;6345693;22;19998;-84
2021/04/14 10:22:29;;;;;;;3.83;1.73;;;;;;;4.67;56.50;96318.94;6346692;22;20030;-86
2021/04/14 10:25:26;;;;;;;5.00;2.40;;;;;;;4.96;55.79;96354.78;6347032;22;19998;-85
2021/04/14 10:28:05;;;;;;;7.55;2.67;;;;;;;4.89;57.10;96356.88;6316832;22;20070;-86
2021/04/14 10:30:34;;;;;;;4.63;2.17;;;;;;;5.09;56.21;96354.88;6347375;22;20002;-86
2021/04/14 10:33:13;;;;;;;4.35;2.40;;;;;;;4.90;56.57;96312.63;6346836;22;20705;-85
2021/04/14 10:35:39;;;;;;;3.90;1.80;;;;;;;4.87;57.00;96329.63;6347150;22;20085;-86
2021/04/14 10:38:05;;;;;;;2.22;1.70;;;;;;;4.45;56.95;96294.44;6375019;22;20071;-84
2021/04/14 10:40:40;;;;;;;2.22;1.88;;;;;;;4.64;57.07;96319.78;6349351;22;20002;-86
2021/04/14 10:43:12;;;;;;;3.15;1.63;;;;;;;5.11;57.12;96359.81;6349029;22;20029;-85
2021/04/14 10:45:54;;;;;;;6.50;1.98;;;;;;;4.56;57.22;96323.78;6348696;22;19998;-85
2021/04/14 10:48:20;;;;;;;2.45;1.58;;;;;;;4.56;55.99;96302.28;6348931;22;20038;-84
2021/04/14 10:50:46;;;;;;;3.60;1.77;;;;;;;5.01;56.72;96367.00;6351537;22;20006;-85
2021/04/14 10:53:12;;;;;;;10.73;2.35;;;;;;;4.62;55.88;96271.00;6352462;22;20104;-85
2021/04/14 10:55:45;;;;;;;3.97;1.80;;;;;;;5.49;54.86;96368.16;6376129;22;20259;-85
2021/04/14 10:58:18;;;;;;;2.92;1.60;;;;;;;5.75;54.48;96356.31;6348691;22;20022;-85
2021/04/14 11:00:47;;;;;;;5.53;1.75;;;;;;;5.24;52.46;96242.94;6376587;22;20322;-85
2021/04/14 11:03:19;;;;;;;2.13;1.60;;;;;;;5.37;50.21;96344.56;6376317;22;19998;-85
2021/04/14 11:05:57;;;;;;;2.80;1.90;;;;;;;5.76;55.09;96319.31;6348637;22;20002;-86
2021/04/14 11:08:24;;;;;;;2.38;1.40;;;;;;;5.49;52.58;96300.78;6348927;22;20011;-87
2021/04/14 11:10:53;;;;;;;3.60;1.73;;;;;;;6.08;52.76;96310.38;6349159;22;20010;-86
2021/04/14 11:13:22;;;;;;;3.40;2.15;;;;;;;7.09;67.73;96290.72;6348860;22;20014;-85
2021/04/14 11:15:50;;;;;;;3.65;1.90;;;;;;;6.35;52.56;96274.91;6377709;22;20002;-84
2021/04/14 11:18:18;;;;;;;3.08;1.60;;;;;;;7.22;48.36;96343.94;6378910;22;20314;-85
2021/04/14 11:20:44;;;;;;;3.15;1.98;;;;;;;6.52;51.18;96359.97;6376774;22;20350;-85
2021/04/14 11:23:38;;;;;;;2.78;1.75;;;;;;;6.48;51.57;96356.59;6348797;22;20040;-84
2021/04/14 11:26:14;;;;;;;8.35;2.30;;;;;;;6.30;52.26;96357.13;6342877;22;20007;-84
2021/04/14 11:28:45;;;;;;;5.20;2.10;;;;;;;5.49;51.93;96284.63;6376566;22;20363;-84
2021/04/14 11:31:13;;;;;;;9.18;1.55;;;;;;;5.99;50.53;96311.00;6348323;22;20077;-84
2021/04/14 11:33:43;;;;;;;8.05;3.08;;;;;;;6.10;50.83;96308.00;6348467;22;20002;-85
2021/04/14 11:36:28;;;;;;;5.97;2.00;;;;;;;6.39;51.39;96347.63;6351386;22;20035;-86
2021/04/14 11:38:57;;;;;;;5.93;2.40;;;;;;;6.49;60.47;96360.06;6354402;22;20063;-87
2021/04/14 11:41:25;;;;;;;3.38;2.20;;;;;;;5.91;52.08;96352.84;6350593;22;20006;-87
2021/04/14 11:43:51;;;;;;;6.10;2.30;;;;;;;6.36;52.77;96308.03;6348820;22;20029;-85
2021/04/14 11:46:36;;;;;;;5.32;2.70;;;;;;;6.12;51.23;96356.84;6348679;22;20370;-85
2021/04/14 11:49:26;;;;;;;4.70;2.20;;;;;;;6.23;50.79;96343.84;6375800;22;20424;-85
2021/04/14 11:51:57;;;;;;;5.85;2.38;;;;;;;6.12;50.91;96321.03;6341619;22;20026;-84
2021/04/14 11:54:30;;;;;;;8.13;2.90;;;;;;;5.75;51.72;96304.31;6344728;22;20370;-85
2021/04/14 11:57:13;;;;;;;4.15;2.47;;;;;;;5.64;49.81;96336.94;6347478;22;20081;-85
2021/04/14 11:59:47;;;;;;;4.95;2.75;;;;;;;5.92;52.87;96358.97;6348084;22;20086;-85